createdAt,value
2022-08-05T00:00:17.243Z,9.762639
2022-08-05T00:01:27.613Z,9.762639
2022-08-05T00:02:17.253Z,9.762639
2022-08-05T00:03:16.201Z,9.762639
2022-08-05T00:04:16.195Z,9.762639
2022-08-05T00:06:02.632Z,9.762639
2022-08-05T00:06:27.824Z,9.762639
2022-08-05T00:07:27.151Z,9.762639
2022-08-05T00:08:34.409Z,9.762639
2022-08-05T00:09:19.442Z,9.762639
2022-08-05T00:10:16.146Z,9.762639
2022-08-05T00:11:20.726Z,9.762639
2022-08-05T00:12:17.111Z,9.762639
2022-08-05T00:13:18.785Z,9.762639
2022-08-05T00:14:17.118Z,9.762639
2022-08-05T00:15:55.698Z,9.762639
2022-08-05T00:16:17.088Z,9.762639
2022-08-05T00:17:18.701Z,9.762639
2022-08-05T00:18:22.560Z,9.762639
2022-08-05T00:19:17.040Z,9.762639
2022-08-05T00:20:20.389Z,9.762639
2022-08-05T00:21:16.031Z,9.762639
2022-08-05T00:22:16.010Z,9.762639
2022-08-05T00:23:16.000Z,9.762639
2022-08-05T00:24:18.850Z,9.762639
2022-08-05T00:25:16.986Z,9.762639
2022-08-05T00:26:16.424Z,9.762639
2022-08-05T00:27:16.709Z,9.762639
2022-08-05T00:28:15.955Z,9.762639
2022-08-05T00:29:16.945Z,9.762639
2022-08-05T00:30:15.934Z,9.762639
2022-08-05T00:31:15.939Z,9.762639
2022-08-05T00:32:15.950Z,9.762639
2022-08-05T00:34:53.549Z,9.762639
2022-08-05T00:34:55.925Z,9.762639
2022-08-05T00:35:16.886Z,9.762639
2022-08-05T00:37:10.848Z,9.762639
2022-08-05T00:37:16.864Z,9.762639
2022-08-05T00:38:15.860Z,9.762639
2022-08-05T00:39:16.878Z,9.762639
2022-08-05T00:40:17.793Z,9.762639
2022-08-05T00:41:16.849Z,9.762639
2022-08-05T00:42:31.709Z,9.762639
2022-08-05T00:43:17.804Z,9.762639
2022-08-05T00:44:15.803Z,9.762639
2022-08-05T00:45:15.792Z,9.762639
2022-08-05T00:46:15.796Z,9.762639
2022-08-05T00:47:16.476Z,9.762639
2022-08-05T00:48:15.768Z,9.762639
2022-08-05T00:49:15.751Z,9.762639
2022-08-05T00:50:15.742Z,9.762639
2022-08-05T00:51:50.318Z,9.762639
2022-08-05T00:52:16.735Z,9.762639
2022-08-05T00:54:01.218Z,9.762639
2022-08-05T00:54:16.702Z,9.762639
2022-08-05T00:55:15.696Z,9.762639
2022-08-05T00:56:17.322Z,9.762639
2022-08-05T00:57:16.686Z,9.762639
2022-08-05T00:58:15.668Z,9.762639
2022-08-05T00:59:15.652Z,9.762639
2022-08-05T01:00:17.055Z,9.762639
2022-08-05T01:01:15.672Z,9.762639
2022-08-05T01:02:16.687Z,9.762639
2022-08-05T01:03:22.740Z,9.762639
2022-08-05T01:04:20.374Z,9.762639
2022-08-05T01:05:16.592Z,9.762639
2022-08-05T01:06:15.633Z,9.762639
2022-08-05T01:07:15.602Z,9.762639
2022-08-05T01:08:40.453Z,9.762639
2022-08-05T01:09:17.263Z,9.762639
2022-08-05T01:10:15.552Z,9.762639
2022-08-05T01:11:21.726Z,9.762639
2022-08-05T01:12:17.978Z,9.762639
2022-08-05T01:13:19.282Z,9.762639
2022-08-05T01:14:16.507Z,9.762639
2022-08-05T01:15:35.445Z,9.762639
2022-08-05T01:16:21.013Z,9.762639
2022-08-05T01:17:16.489Z,9.762639
2022-08-05T01:18:15.477Z,9.762639
2022-08-05T01:19:15.467Z,9.762639
2022-08-05T01:20:15.456Z,9.762639
2022-08-05T01:21:22.811Z,9.762639
2022-08-05T01:22:18.805Z,9.762639
2022-08-05T01:23:23.362Z,9.762639
2022-08-05T01:24:16.406Z,9.762639
2022-08-05T01:25:15.403Z,9.762639
2022-08-05T01:26:15.394Z,9.762639
2022-08-05T01:27:19.486Z,9.762639
2022-08-05T01:28:16.369Z,9.762639
2022-08-05T01:29:15.361Z,9.762639
2022-08-05T01:30:18.755Z,9.762639
2022-08-05T01:31:15.341Z,9.762639
2022-08-05T01:32:18.565Z,9.762639
2022-08-05T01:33:15.927Z,9.762639
2022-08-05T01:34:15.315Z,9.762639
2022-08-05T01:35:15.298Z,9.762829
2022-08-05T01:36:16.419Z,9.762485
2022-08-05T01:37:24.752Z,9.762485
2022-08-05T01:38:24.750Z,9.762485
2022-08-05T01:39:16.324Z,9.762485
2022-08-05T01:40:18.039Z,9.762485
2022-08-05T01:41:15.263Z,9.762485
2022-08-05T01:42:15.380Z,9.762485
2022-08-05T01:43:22.253Z,9.762485
2022-08-05T01:44:16.214Z,9.762485
2022-08-05T01:45:15.206Z,9.762485
2022-08-05T01:46:16.173Z,9.762485
2022-08-05T01:47:15.184Z,9.762485
2022-08-05T01:48:15.177Z,9.762485
2022-08-05T01:49:24.338Z,9.762485
2022-08-05T01:50:16.158Z,9.762485
2022-08-05T01:51:15.148Z,9.762485
2022-08-05T01:52:17.599Z,9.762485
2022-08-05T01:53:16.125Z,9.762747
2022-08-05T01:54:16.113Z,9.762816
2022-08-05T01:55:15.116Z,9.762942
2022-08-05T01:58:10.982Z,9.762785
2022-08-05T01:58:16.102Z,9.762827
2022-08-05T01:58:29.946Z,9.762867
2022-08-05T01:59:15.071Z,9.762787
2022-08-05T02:00:15.062Z,9.762687
2022-08-05T02:01:15.066Z,9.762610
2022-08-05T02:02:16.584Z,9.762610
2022-08-05T02:03:24.032Z,9.762734
2022-08-05T02:04:16.101Z,9.762761
2022-08-05T02:05:15.010Z,9.762748
2022-08-05T02:06:33.275Z,9.762763
2022-08-05T02:07:22.167Z,9.762732
2022-08-05T02:08:16.011Z,9.762603
2022-08-05T02:09:16.467Z,9.762745
2022-08-05T02:10:17.257Z,9.762740
2022-08-05T02:11:14.952Z,9.762784
2022-08-05T02:12:15.960Z,9.762675
2022-08-05T02:13:16.591Z,9.762719
2022-08-05T02:14:14.923Z,9.762848
2022-08-05T02:15:14.915Z,9.762008
2022-08-05T02:16:16.371Z,9.762434
2022-08-05T02:17:29.773Z,9.762361
2022-08-05T02:18:28.706Z,9.762580
2022-08-05T02:19:15.872Z,9.762642
2022-08-05T02:20:14.869Z,9.762670
2022-08-05T02:21:15.902Z,9.762726
2022-08-05T02:22:25.512Z,9.762530
2022-08-05T02:23:15.830Z,9.762645
2022-08-05T02:24:17.822Z,9.762383
2022-08-05T02:25:14.816Z,9.762476
2022-08-05T02:26:14.806Z,9.762660
2022-08-05T02:27:14.805Z,9.762620
2022-08-05T02:28:14.793Z,9.762790
2022-08-05T02:29:21.324Z,9.762583
2022-08-05T02:30:15.776Z,9.762594
2022-08-05T02:31:15.029Z,9.762559
2022-08-05T02:32:23.944Z,9.762530
2022-08-05T02:33:15.755Z,9.762455
2022-08-05T02:34:15.742Z,9.762589
2022-08-05T02:35:14.730Z,9.762746
2022-08-05T02:36:15.600Z,9.760592
2022-08-05T02:37:14.708Z,9.759023
2022-08-05T02:38:19.533Z,10.195498
2022-08-05T02:39:15.724Z,10.187241
2022-08-05T02:40:15.675Z,10.187241
2022-08-05T02:41:17.777Z,10.187241
2022-08-05T02:42:26.129Z,10.187241
2022-08-05T02:43:15.653Z,10.187241
2022-08-05T02:44:14.654Z,10.187241
2022-08-05T02:45:14.642Z,10.187241
2022-08-05T02:46:16.470Z,10.187241
2022-08-05T02:47:14.613Z,10.187241
2022-08-05T02:48:14.596Z,10.187241
2022-08-05T02:49:14.589Z,10.187241
2022-08-05T02:50:14.575Z,10.187241
2022-08-05T02:51:14.566Z,10.187241
2022-08-05T02:52:30.167Z,10.187241
2022-08-05T02:53:19.046Z,10.187241
2022-08-05T02:54:34.446Z,10.187241
2022-08-05T02:55:17.627Z,10.187241
2022-08-05T02:56:16.050Z,10.187241
2022-08-05T02:58:10.384Z,10.187241
2022-08-05T02:58:15.509Z,10.187241
2022-08-05T02:59:14.486Z,10.187241
2022-08-05T03:00:14.471Z,10.187241
2022-08-05T03:01:14.511Z,10.187241
2022-08-05T03:02:14.453Z,10.187241
2022-08-05T03:03:14.447Z,10.187241
2022-08-05T03:04:14.565Z,10.187241
2022-08-05T03:05:14.427Z,10.187241
2022-08-05T03:06:56.936Z,10.187241
2022-08-05T03:07:17.607Z,10.187241
2022-08-05T03:08:16.563Z,10.187241
2022-08-05T03:09:15.771Z,10.187241
2022-08-05T03:10:14.366Z,10.187241
2022-08-05T03:11:57.059Z,10.187241
2022-08-05T03:12:15.354Z,10.187241
2022-08-05T03:13:16.889Z,10.187241
2022-08-05T03:14:15.331Z,10.187241
2022-08-05T03:15:14.322Z,10.187241
2022-08-05T03:16:15.779Z,10.187241
2022-08-05T03:17:14.301Z,10.187241
2022-08-05T03:18:14.298Z,10.187241
2022-08-05T03:19:29.505Z,10.187241
2022-08-05T03:20:15.269Z,10.187241
2022-08-05T03:21:14.276Z,10.187241
2022-08-05T03:22:16.253Z,10.187241
2022-08-05T03:23:14.239Z,10.187241
2022-08-05T03:24:14.238Z,10.187241
2022-08-05T03:25:32.587Z,10.187241
2022-08-05T03:26:30.887Z,10.187241
2022-08-05T03:27:15.918Z,10.187241
2022-08-05T03:28:14.256Z,10.187241
2022-08-05T03:29:17.372Z,10.187241
2022-08-05T03:30:14.181Z,10.187241
2022-08-05T03:31:41.488Z,10.187241
2022-08-05T03:32:15.154Z,10.187241
2022-08-05T03:33:14.148Z,10.187241
2022-08-05T03:34:14.133Z,10.187241
2022-08-05T03:35:14.123Z,10.187241
2022-08-05T03:36:14.116Z,10.187241
2022-08-05T03:37:14.119Z,10.187241
2022-08-05T03:38:14.574Z,10.187241
2022-08-05T03:39:20.166Z,10.187241
2022-08-05T03:40:15.527Z,10.187241
2022-08-05T03:41:15.075Z,10.187241
2022-08-05T03:42:14.067Z,10.187241
2022-08-05T03:43:15.950Z,10.187241
2022-08-05T03:44:19.807Z,10.187241
2022-08-05T03:45:21.450Z,10.187241
2022-08-05T03:46:15.015Z,10.187241
2022-08-05T03:47:14.023Z,10.187241
2022-08-05T03:48:13.995Z,10.187241
2022-08-05T03:49:15.057Z,10.187241
2022-08-05T03:50:13.976Z,10.187241
2022-08-05T03:52:39.330Z,10.187241
2022-08-05T03:52:48.708Z,10.187241
2022-08-05T03:55:49.827Z,10.187241
2022-08-05T03:55:51.843Z,10.187241
2022-08-05T03:56:03.960Z,10.187241
2022-08-05T03:56:26.831Z,10.187241
2022-08-05T03:57:16.353Z,10.187241
2022-08-05T03:58:13.897Z,10.187241
2022-08-05T03:59:14.877Z,10.187241
2022-08-05T04:00:16.430Z,10.187241
2022-08-05T04:01:13.896Z,10.187241
2022-08-05T04:02:17.310Z,10.187241
2022-08-05T04:03:26.747Z,10.187241
2022-08-05T04:04:14.837Z,10.187241
2022-08-05T04:05:14.835Z,10.187241
2022-08-05T04:06:13.823Z,10.187241
2022-08-05T04:07:13.820Z,10.187241
2022-08-05T04:08:14.715Z,10.187241
2022-08-05T04:09:14.789Z,10.187241
2022-08-05T04:10:14.777Z,10.187241
2022-08-05T04:11:13.768Z,10.187241
2022-08-05T04:12:23.703Z,10.187241
2022-08-05T04:13:22.277Z,10.187241
2022-08-05T04:14:29.759Z,10.187241
2022-08-05T04:15:15.482Z,10.187241
2022-08-05T04:16:14.399Z,10.187241
2022-08-05T04:17:14.733Z,10.187241
2022-08-05T04:18:20.584Z,10.187241
2022-08-05T04:19:15.689Z,10.187241
2022-08-05T04:20:14.187Z,10.187241
2022-08-05T04:21:13.679Z,10.187241
2022-08-05T04:22:14.677Z,10.187241
2022-08-05T04:23:16.126Z,10.187241
2022-08-05T04:24:19.366Z,10.187241
2022-08-05T04:25:14.638Z,10.187241
2022-08-05T04:26:13.754Z,10.187241
2022-08-05T04:27:13.631Z,10.187241
2022-08-05T04:28:13.813Z,10.187241
2022-08-05T04:29:14.359Z,10.187241
2022-08-05T04:30:13.580Z,10.187241
2022-08-05T04:31:13.575Z,10.187241
2022-08-05T04:32:13.574Z,10.187241
2022-08-05T04:33:13.561Z,10.187241
2022-08-05T04:34:31.668Z,10.187241
2022-08-05T04:35:17.651Z,10.187241
2022-08-05T04:36:45.418Z,10.187241
2022-08-05T04:37:14.533Z,10.187241
2022-08-05T04:38:15.485Z,10.187241
2022-08-05T04:39:13.563Z,10.187241
2022-08-05T04:40:13.488Z,10.187241
2022-08-05T04:41:14.476Z,10.187241
2022-08-05T04:42:13.466Z,10.187241
2022-08-05T04:43:16.338Z,10.187241
2022-08-05T04:44:13.443Z,9.762642
2022-08-05T04:45:14.180Z,9.762515
2022-08-05T04:46:14.595Z,9.762736
2022-08-05T04:47:18.592Z,9.762805
2022-08-05T04:48:27.206Z,9.762899
2022-08-05T04:52:00.294Z,9.762789
2022-08-05T04:53:28.901Z,9.762789
2022-08-05T04:53:53.038Z,9.762789
2022-08-05T04:54:38.577Z,9.762789
2022-08-05T04:56:14.683Z,9.762789
2022-08-05T04:57:17.863Z,9.762789
2022-08-05T04:57:37.203Z,9.762789
2022-08-05T04:58:32.886Z,9.762068
2022-08-05T04:59:40.472Z,9.762473
2022-08-05T05:00:36.348Z,9.762733
2022-08-05T05:02:06.302Z,9.762661
2022-08-05T05:02:36.104Z,9.762547
2022-08-05T05:03:41.780Z,9.762624
2022-08-05T05:04:33.760Z,9.762841
2022-08-05T05:05:32.746Z,9.762836
2022-08-05T05:06:39.153Z,9.762758
2022-08-05T05:07:35.353Z,9.762732
2022-08-05T05:08:32.713Z,9.764446
2022-08-05T05:09:32.693Z,9.764326
2022-08-05T05:10:33.382Z,9.763046
2022-08-05T05:11:52.782Z,9.762849
2022-08-05T05:12:33.663Z,9.762552
2022-08-05T05:13:41.854Z,9.762447
2022-08-05T05:14:33.673Z,9.762205
2022-08-05T05:15:56.451Z,9.762820
2022-08-05T05:16:33.635Z,9.762820
2022-08-05T05:17:57.115Z,9.763043
2022-08-05T05:18:34.301Z,9.763025
2022-08-05T05:19:37.013Z,9.762862
2022-08-05T05:20:33.605Z,9.762948
2022-08-05T05:21:33.123Z,9.762749
2022-08-05T05:22:32.589Z,9.762609
2022-08-05T05:23:39.514Z,9.762796
2022-08-05T05:24:58.800Z,9.762823
2022-08-05T05:25:40.775Z,9.762760
2022-08-05T05:26:33.589Z,9.762794
2022-08-05T05:27:41.720Z,9.762754
2022-08-05T05:28:37.424Z,9.762676
2022-08-05T05:30:03.364Z,9.762641
2022-08-05T05:30:33.678Z,9.762752
2022-08-05T07:17:57.043Z,9.763126
2022-08-05T07:18:00.931Z,9.762987
2022-08-05T07:18:29.132Z,9.762990
2022-08-05T07:19:38.926Z,9.762599
2022-08-05T07:20:38.672Z,9.763210
2022-08-05T07:21:25.675Z,9.763210
2022-08-05T07:22:19.539Z,9.763210
2022-08-05T07:23:26.522Z,9.763210
2022-08-05T07:24:20.670Z,9.763210
2022-08-05T07:25:23.451Z,9.762805
2022-08-05T07:26:22.690Z,9.762885
2022-08-05T07:27:21.542Z,9.762845
2022-08-05T07:28:18.482Z,9.762745
2022-08-05T07:29:18.698Z,9.762782
2022-08-05T07:30:24.670Z,9.762644
2022-08-05T07:31:19.418Z,9.762649
2022-08-05T07:32:26.298Z,9.762893
2022-08-05T07:33:19.413Z,9.762745
2022-08-05T07:34:21.528Z,9.762802
2022-08-05T07:36:04.657Z,9.762878
2022-08-05T07:36:20.261Z,9.762701
2022-08-05T07:37:18.363Z,9.762674
2022-08-05T07:38:32.560Z,9.762543
2022-08-05T07:39:50.388Z,9.762292
2022-08-05T07:40:31.409Z,9.762024
2022-08-05T07:42:07.844Z,9.762332
2022-08-05T07:42:19.439Z,9.762595
2022-08-05T07:43:20.878Z,9.762595
2022-08-05T07:44:46.395Z,9.762680
2022-08-05T07:45:57.636Z,9.762732
2022-08-05T07:46:25.331Z,9.762690
2022-08-05T07:47:19.095Z,9.762677
2022-08-05T07:49:02.099Z,9.762577
2022-08-05T07:49:19.324Z,9.762783
2022-08-05T07:50:18.290Z,9.762700
2022-08-05T07:51:23.731Z,9.762699
2022-08-05T07:52:19.229Z,9.762740
2022-08-05T07:53:18.237Z,9.762636
2022-08-05T07:54:18.722Z,9.762704
2022-08-05T07:56:05.812Z,9.762758
2022-08-05T07:57:00.355Z,9.762719
2022-08-05T07:57:52.316Z,9.762606
2022-08-05T07:58:57.412Z,9.762667
2022-08-05T07:59:23.389Z,9.762586
2022-08-05T08:00:19.158Z,9.762778
2022-08-05T08:01:18.158Z,9.762895
2022-08-05T08:02:18.309Z,9.762753
2022-08-05T08:03:18.141Z,9.762753
2022-08-05T08:04:18.134Z,9.763123
2022-08-05T08:05:19.155Z,9.763073
2022-08-05T08:06:18.098Z,9.763012
2022-08-05T08:07:22.126Z,9.762922
2022-08-05T08:08:19.855Z,9.762911
2022-08-05T08:09:18.074Z,9.762807
2022-08-05T08:10:20.481Z,9.762930
2022-08-05T08:11:18.037Z,9.762844
2022-08-05T08:12:33.447Z,9.762810
2022-08-05T08:13:21.902Z,9.762877
2022-08-05T08:14:19.258Z,9.762950
2022-08-05T08:15:18.042Z,9.762939
2022-08-05T08:16:34.973Z,9.762948
2022-08-05T08:17:19.027Z,9.762934
2022-08-05T08:18:20.952Z,9.762932
2022-08-05T08:20:22.955Z,9.762815
2022-08-05T08:20:42.569Z,9.762905
2022-08-05T08:21:19.011Z,9.762806
2022-08-05T08:22:17.947Z,9.762906
2022-08-05T08:24:02.264Z,9.762870
2022-08-05T08:24:18.940Z,9.762143
2022-08-05T08:25:18.017Z,9.762661
2022-08-05T08:26:27.129Z,9.762763
2022-08-05T08:27:18.938Z,9.762988
2022-08-05T08:28:18.799Z,9.763302
2022-08-05T08:29:45.267Z,9.762786
2022-08-05T08:30:32.286Z,9.762592
2022-08-05T08:31:18.907Z,9.762856
2022-08-05T08:32:18.517Z,9.762993
2022-08-05T08:33:21.437Z,9.762809
2022-08-05T08:34:18.769Z,9.762705
2022-08-05T08:35:18.852Z,9.762547
2022-08-05T08:36:38.708Z,9.762804
2022-08-05T08:37:19.819Z,9.762790
2022-08-05T08:38:18.797Z,9.762818
2022-08-05T08:39:18.893Z,9.762915
2022-08-05T08:40:17.824Z,9.762762
2022-08-05T08:41:17.823Z,9.762746
2022-08-05T08:42:33.912Z,9.762780
2022-08-05T08:45:21.092Z,9.762770
2022-08-05T08:45:23.973Z,9.762782
2022-08-05T08:45:26.662Z,9.762761
2022-08-05T08:46:19.709Z,9.762691
2022-08-05T08:47:47.261Z,9.762641
2022-08-05T08:48:36.155Z,9.762720
2022-08-05T08:50:06.225Z,9.763150
2022-08-05T08:50:32.049Z,9.762837
2022-08-05T08:52:01.987Z,9.763025
2022-08-05T08:52:18.678Z,9.763056
2022-08-05T08:53:17.674Z,9.762808
2022-08-05T08:54:17.675Z,9.762730
2022-08-05T08:55:19.662Z,9.763500
2022-08-05T08:56:18.682Z,9.762968
2022-08-05T08:57:17.762Z,9.762982
2022-08-05T08:58:17.633Z,9.762743
2022-08-05T08:59:19.751Z,9.762768
2022-08-05T09:00:19.422Z,9.762954
2022-08-05T09:01:18.269Z,9.762874
2022-08-05T09:02:18.705Z,9.762810
2022-08-05T09:03:19.232Z,9.762765
2022-08-05T09:04:17.592Z,9.762789
2022-08-05T09:05:18.436Z,9.762983
2022-08-05T09:06:21.136Z,9.763048
2022-08-05T09:07:19.636Z,9.762945
2022-08-05T09:08:18.568Z,9.763011
2022-08-05T09:09:17.538Z,9.762890
2022-08-05T09:10:17.531Z,9.763004
2022-08-05T09:11:17.506Z,9.762832
2022-08-05T09:12:20.722Z,9.762914
2022-08-05T09:13:18.509Z,9.762783
2022-08-05T09:14:57.192Z,9.762707
2022-08-05T09:15:18.455Z,9.762814
2022-08-05T09:16:17.465Z,9.762691
2022-08-05T09:17:40.891Z,9.762709
2022-08-05T09:18:18.478Z,9.762787
2022-08-05T09:19:17.461Z,9.762789
2022-08-05T09:20:36.413Z,9.762690
2022-08-05T09:21:20.853Z,9.762677
2022-08-05T09:22:25.066Z,9.762554
2022-08-05T09:23:21.641Z,9.762619
2022-08-05T09:24:17.407Z,9.762530
2022-08-05T09:25:35.601Z,9.762657
2022-08-05T09:26:22.170Z,9.762866
2022-08-05T09:27:18.777Z,9.762604
2022-08-05T09:28:21.038Z,9.762665
2022-08-05T09:29:19.068Z,9.762736
2022-08-05T09:30:17.351Z,9.762572
2022-08-05T09:31:43.882Z,9.762652
2022-08-05T09:32:41.324Z,9.762519
2022-08-05T09:33:18.283Z,9.762761
2022-08-05T09:34:17.269Z,9.762668
2022-08-05T09:35:26.355Z,9.762708
2022-08-05T09:36:18.262Z,9.763012
2022-08-05T09:37:17.301Z,9.763066
2022-08-05T09:38:27.372Z,9.762833
2022-08-05T09:39:22.188Z,9.762808
2022-08-05T09:40:17.288Z,9.762864
2022-08-05T09:41:17.216Z,9.762937
2022-08-05T09:42:22.956Z,9.763081
2022-08-05T09:43:18.184Z,9.762834
2022-08-05T09:44:17.189Z,9.762960
2022-08-05T09:46:04.567Z,9.762918
2022-08-05T09:46:18.129Z,9.762913
2022-08-05T09:47:20.528Z,9.762789
2022-08-05T09:48:17.099Z,9.762864
2022-08-05T09:49:19.161Z,9.762753
2022-08-05T09:50:17.805Z,9.762789
2022-08-05T09:51:18.169Z,9.762850
2022-08-05T09:52:18.072Z,9.762806
2022-08-05T09:53:25.816Z,9.762724
2022-08-05T09:54:28.823Z,9.762822
2022-08-05T09:55:56.895Z,9.762853
2022-08-05T09:56:18.046Z,9.762774
2022-08-05T09:57:23.513Z,9.762676
2022-08-05T09:58:17.996Z,9.762707
2022-08-05T09:59:17.522Z,9.762726
2022-08-05T10:00:17.007Z,9.762760
2022-08-05T10:01:31.587Z,9.763005
2022-08-05T10:02:18.022Z,9.762967
2022-08-05T10:03:16.952Z,9.762827
2022-08-05T10:04:17.492Z,9.762794
2022-08-05T10:05:16.947Z,9.762816
2022-08-05T10:06:16.921Z,9.762953
2022-08-05T10:07:21.082Z,9.762922
2022-08-05T10:08:36.918Z,9.763284
2022-08-05T10:09:25.101Z,9.763268
2022-08-05T10:10:18.050Z,9.762928
2022-08-05T10:11:17.917Z,9.762926
2022-08-05T10:12:30.251Z,9.762965
2022-08-05T10:13:17.864Z,9.763418
2022-08-05T10:14:16.863Z,9.763379
2022-08-05T10:15:17.309Z,9.763100
2022-08-05T10:16:16.885Z,9.762896
2022-08-05T10:17:37.297Z,9.763011
2022-08-05T10:18:17.859Z,9.763144
2022-08-05T10:19:16.812Z,9.763116
2022-08-05T10:20:18.837Z,9.763036
2022-08-05T10:21:16.794Z,9.763170
2022-08-05T10:22:29.811Z,9.762871
2022-08-05T10:23:34.368Z,9.762727
2022-08-05T10:24:17.801Z,9.762819
2022-08-05T10:25:16.847Z,9.762826
2022-08-05T10:26:16.831Z,9.762924
2022-08-05T10:27:16.887Z,9.762943
2022-08-05T10:28:19.557Z,9.762801
2022-08-05T10:30:06.065Z,9.762848
2022-08-05T10:32:46.814Z,9.762882
2022-08-05T10:32:47.440Z,9.762867
2022-08-05T10:32:53.683Z,9.762798
2022-08-05T10:33:17.748Z,9.762912
2022-08-05T10:34:16.901Z,9.762737
2022-08-05T10:35:16.840Z,9.762631
2022-08-05T10:36:16.724Z,9.762571
2022-08-05T10:37:21.415Z,9.762421
2022-08-05T10:38:16.688Z,9.762568
2022-08-05T10:39:25.285Z,9.762771
2022-08-05T10:40:19.481Z,9.762779
2022-08-05T10:41:23.674Z,9.762717
2022-08-05T10:42:18.510Z,9.762748
2022-08-05T10:43:16.651Z,9.762789
2022-08-05T10:44:16.639Z,9.762710
2022-08-05T10:45:23.591Z,9.762897
2022-08-05T10:46:17.651Z,9.762910
2022-08-05T10:47:26.025Z,9.762830
2022-08-05T10:48:31.710Z,9.762648
2022-08-05T10:49:17.588Z,9.762697
2022-08-05T10:50:31.936Z,9.762943
2022-08-05T10:51:22.421Z,9.762871
2022-08-05T10:52:17.602Z,9.762946
2022-08-05T10:53:17.518Z,9.762865
2022-08-05T10:54:28.654Z,9.762887
2022-08-05T10:55:18.540Z,9.762875
2022-08-05T10:56:25.440Z,9.762874
2022-08-05T10:57:17.551Z,9.762819
2022-08-05T10:58:16.515Z,9.762785
2022-08-05T11:00:04.283Z,9.762824
2022-08-05T11:00:20.212Z,9.762813
2022-08-05T11:01:17.486Z,9.762796
2022-08-05T11:02:38.519Z,9.762849
2022-08-05T11:03:24.257Z,9.762893
2022-08-05T11:04:17.461Z,9.762716
2022-08-05T11:05:18.135Z,9.762914
2022-08-05T11:06:17.623Z,9.762913
2022-08-05T11:07:17.431Z,9.763134
2022-08-05T11:08:34.304Z,9.762889
2022-08-05T11:09:18.626Z,9.762932
2022-08-05T11:10:17.449Z,9.763076
2022-08-05T11:11:16.922Z,9.763037
2022-08-05T11:12:17.393Z,9.763196
2022-08-05T11:13:16.390Z,9.763302
2022-08-05T11:14:16.358Z,9.763049
2022-08-05T11:15:20.040Z,9.762928
2022-08-05T11:16:16.359Z,9.762824
2022-08-05T11:17:59.747Z,9.763165
2022-08-05T11:18:18.365Z,9.763023
2022-08-05T11:20:11.500Z,9.763146
2022-08-05T11:20:18.539Z,9.763076
2022-08-05T11:21:16.316Z,9.762799
2022-08-05T11:22:16.315Z,9.762760
2022-08-05T11:23:16.321Z,9.762903
2022-08-05T11:24:30.163Z,9.762922
2022-08-05T11:26:04.516Z,9.762916
2022-08-05T11:26:29.181Z,9.762820
2022-08-05T11:27:17.242Z,9.762881
2022-08-05T11:28:17.280Z,9.763037
2022-08-05T11:29:16.243Z,9.762985
2022-08-05T11:30:16.231Z,9.762861
2022-08-05T11:31:51.796Z,9.762748
2022-08-05T11:32:17.237Z,9.762784
2022-08-05T11:33:21.121Z,9.762956
2022-08-05T11:34:21.202Z,9.762671
2022-08-05T11:35:17.195Z,9.762497
2022-08-05T11:36:34.585Z,9.762881
2022-08-05T11:38:30.852Z,9.762953
2022-08-05T11:38:37.442Z,9.762958
2022-08-05T11:39:17.192Z,9.763113
2022-08-05T11:40:18.322Z,9.762798
2022-08-05T11:41:54.709Z,9.762814
2022-08-05T11:42:18.228Z,9.762795
2022-08-05T11:43:16.114Z,9.762813
2022-08-05T11:44:21.748Z,9.762855
2022-08-05T11:45:23.247Z,9.762951
2022-08-05T11:46:33.342Z,9.762850
2022-08-05T11:47:21.830Z,9.762800
2022-08-05T11:48:17.065Z,9.762753
2022-08-05T11:49:16.091Z,9.762552
2022-08-05T11:50:16.052Z,9.762565
2022-08-05T11:51:49.625Z,9.762532
2022-08-05T11:52:17.067Z,9.762840
2022-08-05T11:53:17.023Z,9.762867
2022-08-05T11:54:16.010Z,9.762799
2022-08-05T11:55:15.981Z,9.762696
2022-08-05T11:56:16.040Z,9.762735
2022-08-05T11:57:25.467Z,9.762723
2022-08-05T11:58:17.437Z,9.762634
2022-08-05T11:59:15.939Z,9.762782
2022-08-05T12:00:16.951Z,9.762643
2022-08-05T12:01:19.005Z,9.763023
2022-08-05T12:02:30.457Z,9.762984
2022-08-05T12:03:28.817Z,9.762953
2022-08-05T12:04:16.951Z,9.762837
2022-08-05T12:05:18.421Z,9.762740
2022-08-05T12:06:15.912Z,9.762870
2022-08-05T12:07:15.954Z,9.762881
2022-08-05T12:08:18.076Z,9.762783
2022-08-05T12:09:20.136Z,9.762731
2022-08-05T12:10:17.083Z,9.762746
2022-08-05T12:11:20.305Z,9.762805
2022-08-05T12:12:15.833Z,9.762674
2022-08-05T12:13:18.576Z,9.762812
2022-08-05T12:14:16.964Z,9.763111
2022-08-05T12:15:16.814Z,9.763252
2022-08-05T12:16:16.824Z,9.763146
2022-08-05T12:18:03.145Z,9.763149
2022-08-05T12:18:17.079Z,9.763076
2022-08-05T12:20:25.322Z,9.763475
2022-08-05T12:20:26.826Z,9.762989
2022-08-05T12:21:17.336Z,9.762857
2022-08-05T12:22:19.951Z,9.762771
2022-08-05T12:23:15.699Z,9.762769
2022-08-05T12:24:17.390Z,9.762906
2022-08-05T12:25:15.674Z,9.762963
2022-08-05T12:26:15.707Z,9.762944
2022-08-05T12:27:21.564Z,9.762738
2022-08-05T12:28:16.676Z,9.762889
2022-08-05T12:29:16.338Z,9.762877
2022-08-05T12:30:15.746Z,9.762679
2022-08-05T12:31:23.482Z,9.762651
2022-08-05T12:32:16.635Z,9.762663
2022-08-05T12:33:27.259Z,9.762878
2022-08-05T12:34:20.654Z,9.762746
2022-08-05T12:35:16.879Z,9.762508
2022-08-05T12:36:16.669Z,9.762312
2022-08-05T12:37:17.393Z,9.762486
2022-08-05T12:38:16.567Z,9.762428
2022-08-05T12:39:16.588Z,9.763078
2022-08-05T12:40:26.606Z,9.764685
2022-08-05T12:41:16.569Z,9.764920
2022-08-05T12:42:15.558Z,9.764197
2022-08-05T12:43:21.086Z,9.763775
2022-08-05T12:44:21.882Z,9.763165
2022-08-05T12:45:16.478Z,9.762650
2022-08-05T12:46:15.524Z,9.762852
2022-08-05T12:47:17.134Z,9.763125
2022-08-05T12:48:27.141Z,9.762918
2022-08-05T12:49:16.487Z,9.762978
2022-08-05T12:50:15.480Z,9.763129
2022-08-05T12:51:21.790Z,9.763040
2022-08-05T12:52:23.943Z,9.763001
2022-08-05T12:53:16.450Z,9.762557
2022-08-05T12:54:16.830Z,9.762941
2022-08-05T12:55:16.430Z,9.763049
2022-08-05T12:56:34.931Z,9.762877
2022-08-05T12:57:16.496Z,9.763199
2022-08-05T12:58:50.148Z,9.763170
2022-08-05T12:59:27.574Z,9.762720
2022-08-05T13:02:02.218Z,9.762777
2022-08-05T13:02:04.055Z,9.762020
2022-08-05T13:02:17.431Z,9.762914
2022-08-05T13:03:15.412Z,9.762805
2022-08-05T13:04:20.593Z,9.762861
2022-08-05T13:05:17.389Z,9.762884
2022-08-05T13:06:16.016Z,9.762897
2022-08-05T13:07:16.118Z,9.762702
2022-08-05T13:08:15.361Z,9.762842
2022-08-05T13:09:15.288Z,9.762965
2022-08-05T13:10:20.229Z,9.762784
2022-08-05T13:11:15.345Z,9.762909
2022-08-05T13:12:16.260Z,9.762560
2022-08-05T13:14:06.007Z,9.763067
2022-08-05T13:14:19.239Z,9.763168
2022-08-05T13:15:16.444Z,9.763046
2022-08-05T13:16:16.921Z,9.762527
2022-08-05T13:17:15.264Z,9.762669
2022-08-05T13:18:19.597Z,9.762765
2022-08-05T13:19:16.221Z,9.762533
2022-08-05T13:20:16.506Z,9.762575
2022-08-05T13:21:15.174Z,9.763021
2022-08-05T13:22:15.176Z,9.762490
2022-08-05T13:23:16.347Z,9.762824
2022-08-05T13:24:15.134Z,9.762913
2022-08-05T13:25:19.148Z,9.762808
2022-08-05T13:26:16.117Z,9.762798
2022-08-05T13:27:17.122Z,9.762774